sensor_id;sensor_type;location;lat;lon;timestamp;P1;durP1;ratioP1;P2;durP2;ratioP2
22881;SDS011;11608;50.894;5.296;2022-12-18T00:01:33;91.80;;;51.97;;
22881;SDS011;11608;50.894;5.296;2022-12-18T00:04:01;93.27;;;54.43;;
22881;SDS011;11608;50.894;5.296;2022-12-18T00:06:27;86.93;;;53.07;;
22881;SDS011;11608;50.894;5.296;2022-12-18T00:08:54;86.53;;;50.63;;
22881;SDS011;11608;50.894;5.296;2022-12-18T00:11:21;87.43;;;53.13;;
22881;SDS011;11608;50.894;5.296;2022-12-18T00:13:47;85.10;;;50.63;;
22881;SDS011;11608;50.894;5.296;2022-12-18T00:16:14;87.73;;;50.33;;
22881;SDS011;11608;50.894;5.296;2022-12-18T00:18:41;86.00;;;49.40;;
22881;SDS011;11608;50.894;5.296;2022-12-18T00:21:08;94.87;;;52.70;;
22881;SDS011;11608;50.894;5.296;2022-12-18T00:23:35;95.27;;;51.87;;
22881;SDS011;11608;50.894;5.296;2022-12-18T00:26:02;94.03;;;52.47;;
22881;SDS011;11608;50.894;5.296;2022-12-18T00:28:28;93.10;;;53.17;;
22881;SDS011;11608;50.894;5.296;2022-12-18T00:31:05;91.10;;;52.90;;
22881;SDS011;11608;50.894;5.296;2022-12-18T00:33:31;91.47;;;51.07;;
22881;SDS011;11608;50.894;5.296;2022-12-18T00:36:06;94.40;;;53.70;;
22881;SDS011;11608;50.894;5.296;2022-12-18T00:38:35;86.53;;;51.13;;
22881;SDS011;11608;50.894;5.296;2022-12-18T00:41:01;94.00;;;51.97;;
22881;SDS011;11608;50.894;5.296;2022-12-18T00:43:27;86.47;;;52.90;;
22881;SDS011;11608;50.894;5.296;2022-12-18T00:45:53;86.67;;;52.27;;
22881;SDS011;11608;50.894;5.296;2022-12-18T00:48:20;91.10;;;52.00;;
22881;SDS011;11608;50.894;5.296;2022-12-18T00:50:47;89.67;;;51.20;;
22881;SDS011;11608;50.894;5.296;2022-12-18T00:53:13;87.23;;;51.47;;
22881;SDS011;11608;50.894;5.296;2022-12-18T00:55:40;101.57;;;55.27;;
22881;SDS011;11608;50.894;5.296;2022-12-18T00:58:06;90.30;;;53.63;;
22881;SDS011;11608;50.894;5.296;2022-12-18T01:00:32;98.00;;;54.07;;
22881;SDS011;11608;50.894;5.296;2022-12-18T01:03:01;94.33;;;54.40;;
22881;SDS011;11608;50.894;5.296;2022-12-18T01:05:27;94.87;;;52.17;;
22881;SDS011;11608;50.894;5.296;2022-12-18T01:07:56;92.90;;;52.03;;
22881;SDS011;11608;50.894;5.296;2022-12-18T01:10:23;95.17;;;52.53;;
22881;SDS011;11608;50.894;5.296;2022-12-18T01:12:49;94.07;;;57.30;;
22881;SDS011;11608;50.894;5.296;2022-12-18T01:15:15;104.63;;;55.57;;
22881;SDS011;11608;50.894;5.296;2022-12-18T01:17:42;96.97;;;53.30;;
22881;SDS011;11608;50.894;5.296;2022-12-18T01:20:08;95.03;;;52.67;;
22881;SDS011;11608;50.894;5.296;2022-12-18T01:22:35;83.87;;;51.93;;
22881;SDS011;11608;50.894;5.296;2022-12-18T01:25:02;93.37;;;51.10;;
22881;SDS011;11608;50.894;5.296;2022-12-18T01:27:29;98.27;;;52.77;;
22881;SDS011;11608;50.894;5.296;2022-12-18T01:29:55;91.37;;;51.37;;
22881;SDS011;11608;50.894;5.296;2022-12-18T01:32:21;91.27;;;51.90;;
22881;SDS011;11608;50.894;5.296;2022-12-18T01:34:47;84.63;;;52.23;;
22881;SDS011;11608;50.894;5.296;2022-12-18T01:37:13;91.03;;;51.50;;
22881;SDS011;11608;50.894;5.296;2022-12-18T01:39:39;88.90;;;52.27;;
22881;SDS011;11608;50.894;5.296;2022-12-18T01:42:13;92.00;;;51.97;;
22881;SDS011;11608;50.894;5.296;2022-12-18T01:44:59;90.53;;;51.30;;
22881;SDS011;11608;50.894;5.296;2022-12-18T01:49:52;91.20;;;52.13;;
22881;SDS011;11608;50.894;5.296;2022-12-18T01:52:18;83.67;;;50.67;;
22881;SDS011;11608;50.894;5.296;2022-12-18T01:54:45;86.83;;;50.93;;
22881;SDS011;11608;50.894;5.296;2022-12-18T01:57:14;76.20;;;50.17;;
22881;SDS011;11608;50.894;5.296;2022-12-18T01:59:41;76.10;;;47.93;;
22881;SDS011;11608;50.894;5.296;2022-12-18T02:02:08;81.20;;;47.37;;
22881;SDS011;11608;50.894;5.296;2022-12-18T02:04:34;82.97;;;49.23;;
22881;SDS011;11608;50.894;5.296;2022-12-18T02:07:07;84.63;;;48.03;;
22881;SDS011;11608;50.894;5.296;2022-12-18T02:09:45;84.93;;;46.47;;
22881;SDS011;11608;50.894;5.296;2022-12-18T02:14:42;73.40;;;47.53;;
22881;SDS011;11608;50.894;5.296;2022-12-18T02:17:11;71.80;;;43.87;;
22881;SDS011;11608;50.894;5.296;2022-12-18T02:24:51;68.87;;;43.87;;
22881;SDS011;11608;50.894;5.296;2022-12-18T02:27:21;79.80;;;45.60;;
22881;SDS011;11608;50.894;5.296;2022-12-18T02:29:49;72.20;;;44.80;;
22881;SDS011;11608;50.894;5.296;2022-12-18T02:32:27;83.30;;;46.87;;
22881;SDS011;11608;50.894;5.296;2022-12-18T02:34:54;68.57;;;41.57;;
22881;SDS011;11608;50.894;5.296;2022-12-18T02:37:21;69.73;;;41.87;;
22881;SDS011;11608;50.894;5.296;2022-12-18T02:39:48;68.83;;;43.60;;
22881;SDS011;11608;50.894;5.296;2022-12-18T02:42:15;64.13;;;42.53;;
22881;SDS011;11608;50.894;5.296;2022-12-18T02:44:46;68.93;;;43.37;;
22881;SDS011;11608;50.894;5.296;2022-12-18T02:47:13;65.77;;;42.47;;
22881;SDS011;11608;50.894;5.296;2022-12-18T02:53:20;71.27;;;42.50;;
22881;SDS011;11608;50.894;5.296;2022-12-18T02:58:16;68.77;;;43.60;;
22881;SDS011;11608;50.894;5.296;2022-12-18T03:00:52;71.37;;;43.83;;
22881;SDS011;11608;50.894;5.296;2022-12-18T03:05:52;67.23;;;44.13;;
22881;SDS011;11608;50.894;5.296;2022-12-18T03:08:20;59.33;;;41.70;;
22881;SDS011;11608;50.894;5.296;2022-12-18T03:11:09;56.67;;;40.77;;
22881;SDS011;11608;50.894;5.296;2022-12-18T03:13:39;60.87;;;38.90;;
22881;SDS011;11608;50.894;5.296;2022-12-18T03:16:07;56.70;;;40.17;;
22881;SDS011;11608;50.894;5.296;2022-12-18T03:18:42;56.17;;;40.03;;
22881;SDS011;11608;50.894;5.296;2022-12-18T03:21:10;58.00;;;39.60;;
22881;SDS011;11608;50.894;5.296;2022-12-18T03:23:43;52.90;;;38.97;;
22881;SDS011;11608;50.894;5.296;2022-12-18T03:26:10;62.20;;;39.83;;
22881;SDS011;11608;50.894;5.296;2022-12-18T03:28:40;59.67;;;40.60;;
22881;SDS011;11608;50.894;5.296;2022-12-18T03:31:08;55.13;;;37.47;;
22881;SDS011;11608;50.894;5.296;2022-12-18T03:33:44;51.37;;;38.20;;
22881;SDS011;11608;50.894;5.296;2022-12-18T03:36:11;59.43;;;39.80;;
22881;SDS011;11608;50.894;5.296;2022-12-18T03:38:37;53.20;;;39.83;;
22881;SDS011;11608;50.894;5.296;2022-12-18T03:43:42;58.73;;;39.10;;
22881;SDS011;11608;50.894;5.296;2022-12-18T03:49:11;58.27;;;39.07;;
22881;SDS011;11608;50.894;5.296;2022-12-18T03:54:07;55.77;;;38.83;;
22881;SDS011;11608;50.894;5.296;2022-12-18T03:56:45;63.17;;;39.90;;
22881;SDS011;11608;50.894;5.296;2022-12-18T03:59:12;57.90;;;40.83;;
22881;SDS011;11608;50.894;5.296;2022-12-18T04:01:40;59.47;;;41.23;;
22881;SDS011;11608;50.894;5.296;2022-12-18T04:04:08;64.13;;;40.63;;
22881;SDS011;11608;50.894;5.296;2022-12-18T04:06:36;57.10;;;40.77;;
22881;SDS011;11608;50.894;5.296;2022-12-18T04:09:02;61.17;;;39.37;;
22881;SDS011;11608;50.894;5.296;2022-12-18T04:11:29;55.77;;;39.63;;
22881;SDS011;11608;50.894;5.296;2022-12-18T04:13:56;55.17;;;37.63;;
22881;SDS011;11608;50.894;5.296;2022-12-18T04:16:23;54.50;;;40.97;;
22881;SDS011;11608;50.894;5.296;2022-12-18T04:18:49;55.57;;;40.70;;
22881;SDS011;11608;50.894;5.296;2022-12-18T04:21:15;56.93;;;40.23;;
22881;SDS011;11608;50.894;5.296;2022-12-18T04:23:41;56.07;;;37.93;;
22881;SDS011;11608;50.894;5.296;2022-12-18T04:26:11;64.80;;;41.80;;
22881;SDS011;11608;50.894;5.296;2022-12-18T04:28:37;55.53;;;39.03;;
22881;SDS011;11608;50.894;5.296;2022-12-18T04:31:03;56.90;;;42.00;;
22881;SDS011;11608;50.894;5.296;2022-12-18T04:33:29;55.80;;;40.53;;
22881;SDS011;11608;50.894;5.296;2022-12-18T04:35:58;58.30;;;39.60;;
22881;SDS011;11608;50.894;5.296;2022-12-18T04:38:24;55.70;;;38.00;;
22881;SDS011;11608;50.894;5.296;2022-12-18T04:40:50;54.67;;;38.37;;
22881;SDS011;11608;50.894;5.296;2022-12-18T04:43:16;58.63;;;37.20;;
22881;SDS011;11608;50.894;5.296;2022-12-18T04:45:42;52.47;;;37.37;;
22881;SDS011;11608;50.894;5.296;2022-12-18T04:48:08;50.87;;;36.50;;
22881;SDS011;11608;50.894;5.296;2022-12-18T04:50:34;49.70;;;36.77;;
22881;SDS011;11608;50.894;5.296;2022-12-18T04:53:00;49.87;;;37.23;;
22881;SDS011;11608;50.894;5.296;2022-12-18T04:55:26;51.37;;;37.73;;
22881;SDS011;11608;50.894;5.296;2022-12-18T04:57:53;53.73;;;39.43;;
22881;SDS011;11608;50.894;5.296;2022-12-18T05:00:19;50.00;;;37.13;;
22881;SDS011;11608;50.894;5.296;2022-12-18T05:02:45;49.90;;;35.47;;
22881;SDS011;11608;50.894;5.296;2022-12-18T05:05:11;51.27;;;37.83;;
22881;SDS011;11608;50.894;5.296;2022-12-18T05:07:37;51.77;;;38.37;;
22881;SDS011;11608;50.894;5.296;2022-12-18T05:10:03;46.33;;;37.33;;
22881;SDS011;11608;50.894;5.296;2022-12-18T05:12:30;46.57;;;36.73;;
22881;SDS011;11608;50.894;5.296;2022-12-18T05:14:56;46.60;;;34.83;;
22881;SDS011;11608;50.894;5.296;2022-12-18T05:17:22;46.23;;;34.33;;
22881;SDS011;11608;50.894;5.296;2022-12-18T05:19:48;50.50;;;35.77;;
22881;SDS011;11608;50.894;5.296;2022-12-18T05:22:15;47.13;;;34.00;;
22881;SDS011;11608;50.894;5.296;2022-12-18T05:24:41;47.20;;;34.30;;
22881;SDS011;11608;50.894;5.296;2022-12-18T05:27:07;49.20;;;35.27;;
22881;SDS011;11608;50.894;5.296;2022-12-18T05:29:33;49.27;;;36.30;;
22881;SDS011;11608;50.894;5.296;2022-12-18T05:31:59;48.70;;;35.20;;
22881;SDS011;11608;50.894;5.296;2022-12-18T05:34:25;46.43;;;34.60;;
22881;SDS011;11608;50.894;5.296;2022-12-18T05:36:52;43.23;;;33.00;;
22881;SDS011;11608;50.894;5.296;2022-12-18T05:39:18;45.43;;;33.53;;
22881;SDS011;11608;50.894;5.296;2022-12-18T05:41:44;44.87;;;35.83;;
22881;SDS011;11608;50.894;5.296;2022-12-18T05:44:10;42.83;;;35.87;;
22881;SDS011;11608;50.894;5.296;2022-12-18T05:46:36;47.10;;;36.27;;
22881;SDS011;11608;50.894;5.296;2022-12-18T05:49:02;47.80;;;35.57;;
22881;SDS011;11608;50.894;5.296;2022-12-18T05:51:28;46.87;;;35.20;;
22881;SDS011;11608;50.894;5.296;2022-12-18T05:53:54;46.63;;;36.27;;
22881;SDS011;11608;50.894;5.296;2022-12-18T05:56:21;48.37;;;36.63;;
22881;SDS011;11608;50.894;5.296;2022-12-18T05:58:50;45.77;;;35.83;;
22881;SDS011;11608;50.894;5.296;2022-12-18T06:01:18;43.97;;;35.80;;
22881;SDS011;11608;50.894;5.296;2022-12-18T06:03:44;48.33;;;35.17;;
22881;SDS011;11608;50.894;5.296;2022-12-18T06:06:17;43.43;;;35.83;;
22881;SDS011;11608;50.894;5.296;2022-12-18T06:08:44;46.33;;;35.70;;
22881;SDS011;11608;50.894;5.296;2022-12-18T06:11:10;40.20;;;34.93;;
22881;SDS011;11608;50.894;5.296;2022-12-18T06:13:37;44.67;;;36.13;;
22881;SDS011;11608;50.894;5.296;2022-12-18T06:16:04;47.27;;;35.43;;
22881;SDS011;11608;50.894;5.296;2022-12-18T06:18:30;41.43;;;35.63;;
22881;SDS011;11608;50.894;5.296;2022-12-18T06:20:56;44.03;;;33.63;;
22881;SDS011;11608;50.894;5.296;2022-12-18T06:23:22;47.63;;;35.50;;
22881;SDS011;11608;50.894;5.296;2022-12-18T06:25:48;48.33;;;36.70;;
22881;SDS011;11608;50.894;5.296;2022-12-18T06:28:14;47.40;;;35.63;;
22881;SDS011;11608;50.894;5.296;2022-12-18T06:30:43;45.53;;;36.50;;
22881;SDS011;11608;50.894;5.296;2022-12-18T06:33:09;44.43;;;35.50;;
22881;SDS011;11608;50.894;5.296;2022-12-18T06:35:35;44.60;;;35.37;;
22881;SDS011;11608;50.894;5.296;2022-12-18T06:38:02;40.37;;;34.90;;
22881;SDS011;11608;50.894;5.296;2022-12-18T06:40:28;44.77;;;36.43;;
22881;SDS011;11608;50.894;5.296;2022-12-18T06:42:54;46.27;;;36.13;;
22881;SDS011;11608;50.894;5.296;2022-12-18T06:45:21;46.97;;;36.37;;
22881;SDS011;11608;50.894;5.296;2022-12-18T06:47:47;47.90;;;36.50;;
22881;SDS011;11608;50.894;5.296;2022-12-18T06:50:13;45.03;;;34.73;;
22881;SDS011;11608;50.894;5.296;2022-12-18T06:52:39;46.17;;;35.53;;
22881;SDS011;11608;50.894;5.296;2022-12-18T06:55:06;43.53;;;35.67;;
22881;SDS011;11608;50.894;5.296;2022-12-18T06:57:33;45.87;;;36.77;;
22881;SDS011;11608;50.894;5.296;2022-12-18T06:59:59;42.20;;;36.03;;
22881;SDS011;11608;50.894;5.296;2022-12-18T07:02:25;49.30;;;35.80;;
22881;SDS011;11608;50.894;5.296;2022-12-18T07:04:51;45.20;;;33.33;;
22881;SDS011;11608;50.894;5.296;2022-12-18T07:07:17;51.27;;;34.20;;
22881;SDS011;11608;50.894;5.296;2022-12-18T07:09:43;43.37;;;34.60;;
22881;SDS011;11608;50.894;5.296;2022-12-18T07:12:09;50.13;;;36.27;;
22881;SDS011;11608;50.894;5.296;2022-12-18T07:14:35;48.43;;;34.27;;
22881;SDS011;11608;50.894;5.296;2022-12-18T07:17:01;45.57;;;32.67;;
22881;SDS011;11608;50.894;5.296;2022-12-18T07:19:27;41.00;;;33.37;;
22881;SDS011;11608;50.894;5.296;2022-12-18T07:21:54;43.70;;;34.73;;
22881;SDS011;11608;50.894;5.296;2022-12-18T07:24:20;44.83;;;33.87;;
22881;SDS011;11608;50.894;5.296;2022-12-18T07:26:48;48.17;;;35.93;;
22881;SDS011;11608;50.894;5.296;2022-12-18T07:29:14;50.27;;;35.90;;
22881;SDS011;11608;50.894;5.296;2022-12-18T07:31:40;39.50;;;33.90;;
22881;SDS011;11608;50.894;5.296;2022-12-18T07:34:09;43.50;;;33.37;;
22881;SDS011;11608;50.894;5.296;2022-12-18T07:36:38;44.73;;;34.00;;
22881;SDS011;11608;50.894;5.296;2022-12-18T07:39:04;37.93;;;30.87;;
22881;SDS011;11608;50.894;5.296;2022-12-18T07:41:30;35.67;;;31.47;;
22881;SDS011;11608;50.894;5.296;2022-12-18T07:43:56;36.73;;;31.10;;
22881;SDS011;11608;50.894;5.296;2022-12-18T07:46:22;35.67;;;31.20;;
22881;SDS011;11608;50.894;5.296;2022-12-18T07:48:48;33.40;;;29.60;;
22881;SDS011;11608;50.894;5.296;2022-12-18T07:51:14;33.33;;;29.47;;
22881;SDS011;11608;50.894;5.296;2022-12-18T07:53:40;34.37;;;29.33;;
22881;SDS011;11608;50.894;5.296;2022-12-18T07:56:08;33.00;;;28.77;;
22881;SDS011;11608;50.894;5.296;2022-12-18T07:58:34;31.40;;;28.30;;
22881;SDS011;11608;50.894;5.296;2022-12-18T08:01:04;34.47;;;29.17;;
22881;SDS011;11608;50.894;5.296;2022-12-18T08:03:31;31.53;;;28.13;;
22881;SDS011;11608;50.894;5.296;2022-12-18T08:06:15;32.10;;;29.00;;
22881;SDS011;11608;50.894;5.296;2022-12-18T08:08:41;30.40;;;27.20;;
22881;SDS011;11608;50.894;5.296;2022-12-18T08:11:07;31.20;;;28.07;;
22881;SDS011;11608;50.894;5.296;2022-12-18T08:13:33;29.77;;;26.67;;
22881;SDS011;11608;50.894;5.296;2022-12-18T08:16:04;30.30;;;27.27;;
22881;SDS011;11608;50.894;5.296;2022-12-18T08:18:31;31.60;;;28.17;;
22881;SDS011;11608;50.894;5.296;2022-12-18T08:20:57;31.03;;;27.83;;
22881;SDS011;11608;50.894;5.296;2022-12-18T08:23:23;31.33;;;28.17;;
22881;SDS011;11608;50.894;5.296;2022-12-18T08:25:49;31.00;;;27.83;;
22881;SDS011;11608;50.894;5.296;2022-12-18T08:28:16;30.70;;;27.50;;
22881;SDS011;11608;50.894;5.296;2022-12-18T08:30:42;30.23;;;27.27;;
22881;SDS011;11608;50.894;5.296;2022-12-18T08:33:08;31.07;;;27.80;;
22881;SDS011;11608;50.894;5.296;2022-12-18T08:35:35;30.27;;;27.13;;
22881;SDS011;11608;50.894;5.296;2022-12-18T08:38:01;31.77;;;28.03;;
22881;SDS011;11608;50.894;5.296;2022-12-18T08:40:28;38.63;;;31.17;;
22881;SDS011;11608;50.894;5.296;2022-12-18T08:42:54;36.70;;;32.80;;
22881;SDS011;11608;50.894;5.296;2022-12-18T08:45:38;30.00;;;26.97;;
22881;SDS011;11608;50.894;5.296;2022-12-18T08:48:05;32.90;;;28.03;;
22881;SDS011;11608;50.894;5.296;2022-12-18T08:50:31;29.77;;;26.63;;
22881;SDS011;11608;50.894;5.296;2022-12-18T08:52:57;30.07;;;27.07;;
22881;SDS011;11608;50.894;5.296;2022-12-18T08:55:23;29.67;;;26.57;;
22881;SDS011;11608;50.894;5.296;2022-12-18T08:57:49;28.73;;;25.93;;
22881;SDS011;11608;50.894;5.296;2022-12-18T09:00:16;28.33;;;25.57;;
22881;SDS011;11608;50.894;5.296;2022-12-18T09:02:42;28.90;;;26.17;;
22881;SDS011;11608;50.894;5.296;2022-12-18T09:05:08;30.03;;;27.13;;
22881;SDS011;11608;50.894;5.296;2022-12-18T09:07:34;30.33;;;27.20;;
22881;SDS011;11608;50.894;5.296;2022-12-18T09:10:00;29.97;;;27.03;;
22881;SDS011;11608;50.894;5.296;2022-12-18T09:12:26;28.97;;;26.27;;
22881;SDS011;11608;50.894;5.296;2022-12-18T09:14:52;29.57;;;26.60;;
22881;SDS011;11608;50.894;5.296;2022-12-18T09:17:18;28.80;;;26.10;;
22881;SDS011;11608;50.894;5.296;2022-12-18T09:19:44;30.03;;;26.90;;
22881;SDS011;11608;50.894;5.296;2022-12-18T09:22:11;29.43;;;26.43;;
22881;SDS011;11608;50.894;5.296;2022-12-18T09:24:37;29.20;;;26.30;;
22881;SDS011;11608;50.894;5.296;2022-12-18T09:27:03;29.63;;;26.57;;
22881;SDS011;11608;50.894;5.296;2022-12-18T09:29:29;29.47;;;26.67;;
22881;SDS011;11608;50.894;5.296;2022-12-18T09:31:55;27.47;;;24.90;;
22881;SDS011;11608;50.894;5.296;2022-12-18T09:34:21;28.87;;;26.07;;
22881;SDS011;11608;50.894;5.296;2022-12-18T09:36:47;29.37;;;26.43;;
22881;SDS011;11608;50.894;5.296;2022-12-18T09:39:13;29.77;;;26.83;;
22881;SDS011;11608;50.894;5.296;2022-12-18T09:41:44;28.73;;;25.90;;
22881;SDS011;11608;50.894;5.296;2022-12-18T09:46:45;29.03;;;26.13;;
22881;SDS011;11608;50.894;5.296;2022-12-18T09:49:14;29.40;;;26.47;;
22881;SDS011;11608;50.894;5.296;2022-12-18T09:54:43;29.90;;;26.83;;
22881;SDS011;11608;50.894;5.296;2022-12-18T09:57:13;29.57;;;26.57;;
22881;SDS011;11608;50.894;5.296;2022-12-18T09:59:40;30.60;;;27.30;;
22881;SDS011;11608;50.894;5.296;2022-12-18T10:02:26;30.73;;;27.47;;
22881;SDS011;11608;50.894;5.296;2022-12-18T10:05:05;29.70;;;26.70;;
22881;SDS011;11608;50.894;5.296;2022-12-18T10:10:31;28.70;;;25.97;;
22881;SDS011;11608;50.894;5.296;2022-12-18T10:18:03;31.27;;;27.63;;
22881;SDS011;11608;50.894;5.296;2022-12-18T10:20:49;30.67;;;27.50;;
22881;SDS011;11608;50.894;5.296;2022-12-18T10:23:33;28.90;;;26.13;;
22881;SDS011;11608;50.894;5.296;2022-12-18T10:26:00;29.47;;;26.57;;
22881;SDS011;11608;50.894;5.296;2022-12-18T10:28:27;30.97;;;27.77;;
22881;SDS011;11608;50.894;5.296;2022-12-18T10:30:55;29.50;;;26.57;;
22881;SDS011;11608;50.894;5.296;2022-12-18T10:33:23;30.23;;;27.27;;
22881;SDS011;11608;50.894;5.296;2022-12-18T10:35:51;32.03;;;28.37;;
22881;SDS011;11608;50.894;5.296;2022-12-18T10:40:57;30.33;;;27.23;;
22881;SDS011;11608;50.894;5.296;2022-12-18T10:43:25;30.77;;;27.47;;
22881;SDS011;11608;50.894;5.296;2022-12-18T10:46:03;30.53;;;27.33;;
22881;SDS011;11608;50.894;5.296;2022-12-18T10:48:39;30.07;;;26.97;;
22881;SDS011;11608;50.894;5.296;2022-12-18T10:51:06;30.13;;;26.90;;
22881;SDS011;11608;50.894;5.296;2022-12-18T10:53:33;30.43;;;27.43;;
22881;SDS011;11608;50.894;5.296;2022-12-18T10:56:00;31.33;;;28.37;;
22881;SDS011;11608;50.894;5.296;2022-12-18T11:03:36;29.97;;;26.93;;
22881;SDS011;11608;50.894;5.296;2022-12-18T11:08:32;31.30;;;28.40;;
22881;SDS011;11608;50.894;5.296;2022-12-18T11:10:58;30.33;;;27.07;;
22881;SDS011;11608;50.894;5.296;2022-12-18T11:13:26;31.80;;;27.67;;
22881;SDS011;11608;50.894;5.296;2022-12-18T11:15:55;30.80;;;27.43;;
22881;SDS011;11608;50.894;5.296;2022-12-18T11:20:51;31.10;;;27.93;;
22881;SDS011;11608;50.894;5.296;2022-12-18T11:23:17;30.73;;;27.47;;
22881;SDS011;11608;50.894;5.296;2022-12-18T11:25:51;31.43;;;28.13;;
22881;SDS011;11608;50.894;5.296;2022-12-18T11:28:28;30.50;;;27.50;;
22881;SDS011;11608;50.894;5.296;2022-12-18T11:31:12;30.37;;;27.27;;
22881;SDS011;11608;50.894;5.296;2022-12-18T11:33:42;32.07;;;28.73;;
22881;SDS011;11608;50.894;5.296;2022-12-18T11:36:10;31.07;;;28.13;;
22881;SDS011;11608;50.894;5.296;2022-12-18T11:38:40;32.57;;;29.37;;
22881;SDS011;11608;50.894;5.296;2022-12-18T11:41:27;32.97;;;28.63;;
22881;SDS011;11608;50.894;5.296;2022-12-18T11:44:36;31.33;;;28.20;;
22881;SDS011;11608;50.894;5.296;2022-12-18T11:47:01;32.27;;;28.90;;
22881;SDS011;11608;50.894;5.296;2022-12-18T11:49:33;33.07;;;29.67;;
22881;SDS011;11608;50.894;5.296;2022-12-18T11:54:42;31.53;;;28.33;;
22881;SDS011;11608;50.894;5.296;2022-12-18T11:57:19;32.00;;;28.67;;
22881;SDS011;11608;50.894;5.296;2022-12-18T12:00:09;32.00;;;28.80;;
22881;SDS011;11608;50.894;5.296;2022-12-18T12:10:32;31.90;;;28.67;;
22881;SDS011;11608;50.894;5.296;2022-12-18T12:13:26;33.33;;;29.87;;
22881;SDS011;11608;50.894;5.296;2022-12-18T12:16:01;34.07;;;30.57;;
22881;SDS011;11608;50.894;5.296;2022-12-18T12:23:46;32.00;;;28.87;;
22881;SDS011;11608;50.894;5.296;2022-12-18T12:31:27;35.90;;;31.83;;
22881;SDS011;11608;50.894;5.296;2022-12-18T12:39:01;36.47;;;32.67;;
22881;SDS011;11608;50.894;5.296;2022-12-18T12:41:30;36.20;;;32.27;;
22881;SDS011;11608;50.894;5.296;2022-12-18T12:44:18;34.53;;;30.97;;
22881;SDS011;11608;50.894;5.296;2022-12-18T12:46:44;34.53;;;31.17;;
22881;SDS011;11608;50.894;5.296;2022-12-18T12:49:15;33.83;;;30.53;;
22881;SDS011;11608;50.894;5.296;2022-12-18T12:51:43;34.63;;;31.20;;
22881;SDS011;11608;50.894;5.296;2022-12-18T12:54:28;33.50;;;30.20;;
22881;SDS011;11608;50.894;5.296;2022-12-18T12:59:31;34.93;;;31.43;;
22881;SDS011;11608;50.894;5.296;2022-12-18T13:04:38;36.20;;;32.43;;
22881;SDS011;11608;50.894;5.296;2022-12-18T13:07:10;34.53;;;31.07;;
22881;SDS011;11608;50.894;5.296;2022-12-18T13:12:24;34.30;;;30.83;;
22881;SDS011;11608;50.894;5.296;2022-12-18T13:15:13;35.60;;;31.77;;
22881;SDS011;11608;50.894;5.296;2022-12-18T13:17:46;36.80;;;33.00;;
22881;SDS011;11608;50.894;5.296;2022-12-18T13:20:12;34.63;;;30.97;;
22881;SDS011;11608;50.894;5.296;2022-12-18T13:22:46;37.13;;;33.40;;
22881;SDS011;11608;50.894;5.296;2022-12-18T13:25:32;35.50;;;31.87;;
22881;SDS011;11608;50.894;5.296;2022-12-18T13:28:03;37.20;;;32.43;;
22881;SDS011;11608;50.894;5.296;2022-12-18T13:35:43;34.67;;;30.97;;
22881;SDS011;11608;50.894;5.296;2022-12-18T13:38:21;32.60;;;29.40;;
22881;SDS011;11608;50.894;5.296;2022-12-18T13:43:22;36.80;;;32.97;;
22881;SDS011;11608;50.894;5.296;2022-12-18T13:45:50;35.40;;;31.67;;
22881;SDS011;11608;50.894;5.296;2022-12-18T13:48:25;36.60;;;31.47;;
22881;SDS011;11608;50.894;5.296;2022-12-18T13:50:52;34.10;;;30.67;;
22881;SDS011;11608;50.894;5.296;2022-12-18T13:53:20;34.90;;;31.30;;
22881;SDS011;11608;50.894;5.296;2022-12-18T13:55:47;34.97;;;31.20;;
22881;SDS011;11608;50.894;5.296;2022-12-18T13:58:14;35.97;;;32.10;;
22881;SDS011;11608;50.894;5.296;2022-12-18T14:00:41;35.63;;;32.07;;
22881;SDS011;11608;50.894;5.296;2022-12-18T14:03:18;35.47;;;31.97;;
22881;SDS011;11608;50.894;5.296;2022-12-18T14:05:44;35.97;;;32.17;;
22881;SDS011;11608;50.894;5.296;2022-12-18T14:08:12;35.43;;;31.93;;
22881;SDS011;11608;50.894;5.296;2022-12-18T14:10:40;35.40;;;31.70;;
22881;SDS011;11608;50.894;5.296;2022-12-18T14:13:07;34.57;;;30.83;;
22881;SDS011;11608;50.894;5.296;2022-12-18T14:15:35;35.93;;;32.13;;
22881;SDS011;11608;50.894;5.296;2022-12-18T14:18:03;35.47;;;30.30;;
22881;SDS011;11608;50.894;5.296;2022-12-18T14:20:35;36.77;;;32.37;;
22881;SDS011;11608;50.894;5.296;2022-12-18T14:23:01;34.60;;;30.77;;
22881;SDS011;11608;50.894;5.296;2022-12-18T14:25:27;33.90;;;30.40;;
22881;SDS011;11608;50.894;5.296;2022-12-18T14:30:35;34.80;;;31.20;;
22881;SDS011;11608;50.894;5.296;2022-12-18T14:33:02;35.67;;;32.00;;
22881;SDS011;11608;50.894;5.296;2022-12-18T14:35:28;34.57;;;31.10;;
22881;SDS011;11608;50.894;5.296;2022-12-18T14:38:08;35.67;;;31.93;;
22881;SDS011;11608;50.894;5.296;2022-12-18T14:40:34;33.00;;;29.33;;
22881;SDS011;11608;50.894;5.296;2022-12-18T14:43:00;35.47;;;30.40;;
22881;SDS011;11608;50.894;5.296;2022-12-18T14:45:33;34.63;;;30.77;;
22881;SDS011;11608;50.894;5.296;2022-12-18T14:48:00;34.40;;;30.67;;
22881;SDS011;11608;50.894;5.296;2022-12-18T14:50:26;32.53;;;29.20;;
22881;SDS011;11608;50.894;5.296;2022-12-18T14:52:52;35.23;;;28.83;;
22881;SDS011;11608;50.894;5.296;2022-12-18T14:55:19;31.03;;;27.90;;
22881;SDS011;11608;50.894;5.296;2022-12-18T14:57:45;31.63;;;28.20;;
22881;SDS011;11608;50.894;5.296;2022-12-18T15:00:16;33.33;;;29.77;;
22881;SDS011;11608;50.894;5.296;2022-12-18T15:02:42;34.03;;;30.33;;
22881;SDS011;11608;50.894;5.296;2022-12-18T15:07:48;35.77;;;29.90;;
22881;SDS011;11608;50.894;5.296;2022-12-18T15:10:19;31.70;;;28.50;;
22881;SDS011;11608;50.894;5.296;2022-12-18T15:20:41;36.17;;;29.77;;
22881;SDS011;11608;50.894;5.296;2022-12-18T15:23:15;32.93;;;29.43;;
22881;SDS011;11608;50.894;5.296;2022-12-18T15:25:42;34.27;;;29.73;;
22881;SDS011;11608;50.894;5.296;2022-12-18T15:28:19;36.27;;;29.67;;
22881;SDS011;11608;50.894;5.296;2022-12-18T15:31:02;34.70;;;30.40;;
22881;SDS011;11608;50.894;5.296;2022-12-18T15:33:36;35.97;;;30.33;;
22881;SDS011;11608;50.894;5.296;2022-12-18T15:36:08;33.60;;;30.10;;
22881;SDS011;11608;50.894;5.296;2022-12-18T15:38:34;33.00;;;29.50;;
22881;SDS011;11608;50.894;5.296;2022-12-18T15:41:00;36.10;;;29.43;;
22881;SDS011;11608;50.894;5.296;2022-12-18T15:43:27;35.20;;;30.30;;
22881;SDS011;11608;50.894;5.296;2022-12-18T15:46:02;35.33;;;30.30;;
22881;SDS011;11608;50.894;5.296;2022-12-18T15:48:28;34.27;;;29.63;;
22881;SDS011;11608;50.894;5.296;2022-12-18T15:50:55;33.37;;;29.77;;
22881;SDS011;11608;50.894;5.296;2022-12-18T15:53:22;36.67;;;31.27;;
22881;SDS011;11608;50.894;5.296;2022-12-18T15:55:49;36.57;;;29.27;;
22881;SDS011;11608;50.894;5.296;2022-12-18T15:58:34;33.17;;;29.07;;
22881;SDS011;11608;50.894;5.296;2022-12-18T16:01:00;37.50;;;31.07;;
22881;SDS011;11608;50.894;5.296;2022-12-18T16:03:26;35.23;;;29.77;;
22881;SDS011;11608;50.894;5.296;2022-12-18T16:05:52;36.40;;;29.70;;
22881;SDS011;11608;50.894;5.296;2022-12-18T16:08:18;37.07;;;31.10;;
22881;SDS011;11608;50.894;5.296;2022-12-18T16:10:44;38.23;;;32.83;;
22881;SDS011;11608;50.894;5.296;2022-12-18T16:13:11;36.17;;;32.30;;
22881;SDS011;11608;50.894;5.296;2022-12-18T16:15:37;36.07;;;31.43;;
22881;SDS011;11608;50.894;5.296;2022-12-18T16:18:03;35.90;;;31.10;;